sensor_id;sensor_type;location;lat;lon;timestamp;P1;durP1;ratioP1;P2;durP2;ratioP2
67363;SDS011;54250;45.572;38.086;2022-08-20T00:01:45;12.63;;;5.43;;
67363;SDS011;54250;45.572;38.086;2022-08-20T00:04:12;7.13;;;3.97;;
67363;SDS011;54250;45.572;38.086;2022-08-20T00:06:39;12.88;;;6.18;;
67363;SDS011;54250;45.572;38.086;2022-08-20T00:09:05;13.02;;;6.15;;
67363;SDS011;54250;45.572;38.086;2022-08-20T00:11:32;9.95;;;5.70;;
67363;SDS011;54250;45.572;38.086;2022-08-20T00:13:59;9.95;;;5.45;;
67363;SDS011;54250;45.572;38.086;2022-08-20T00:16:29;14.63;;;6.07;;
67363;SDS011;54250;45.572;38.086;2022-08-20T00:19:00;16.60;;;6.00;;
67363;SDS011;54250;45.572;38.086;2022-08-20T00:21:27;12.40;;;6.18;;
67363;SDS011;54250;45.572;38.086;2022-08-20T00:23:54;12.05;;;5.95;;
67363;SDS011;54250;45.572;38.086;2022-08-20T00:26:21;10.30;;;5.70;;
67363;SDS011;54250;45.572;38.086;2022-08-20T00:28:48;11.95;;;6.47;;
67363;SDS011;54250;45.572;38.086;2022-08-20T00:31:15;12.73;;;6.22;;
67363;SDS011;54250;45.572;38.086;2022-08-20T00:33:44;15.88;;;6.45;;
67363;SDS011;54250;45.572;38.086;2022-08-20T00:36:11;11.18;;;6.25;;
67363;SDS011;54250;45.572;38.086;2022-08-20T00:38:38;19.92;;;5.88;;
67363;SDS011;54250;45.572;38.086;2022-08-20T00:41:08;12.75;;;6.40;;
67363;SDS011;54250;45.572;38.086;2022-08-20T00:51:13;12.82;;;5.88;;
67363;SDS011;54250;45.572;38.086;2022-08-20T00:53:41;8.55;;;5.85;;
67363;SDS011;54250;45.572;38.086;2022-08-20T00:56:08;13.80;;;5.65;;
67363;SDS011;54250;45.572;38.086;2022-08-20T00:58:36;15.10;;;6.45;;
67363;SDS011;54250;45.572;38.086;2022-08-20T01:01:04;13.93;;;5.63;;
67363;SDS011;54250;45.572;38.086;2022-08-20T01:03:32;16.85;;;4.97;;
67363;SDS011;54250;45.572;38.086;2022-08-20T01:05:59;9.35;;;5.03;;
67363;SDS011;54250;45.572;38.086;2022-08-20T01:08:25;23.85;;;5.78;;
67363;SDS011;54250;45.572;38.086;2022-08-20T01:10:52;7.80;;;5.18;;
67363;SDS011;54250;45.572;38.086;2022-08-20T01:13:31;10.90;;;5.05;;
67363;SDS011;54250;45.572;38.086;2022-08-20T01:16:02;10.18;;;5.22;;
67363;SDS011;54250;45.572;38.086;2022-08-20T01:18:34;8.80;;;5.20;;
67363;SDS011;54250;45.572;38.086;2022-08-20T01:21:03;11.57;;;5.22;;
67363;SDS011;54250;45.572;38.086;2022-08-20T01:23:35;10.23;;;5.35;;
67363;SDS011;54250;45.572;38.086;2022-08-20T01:26:18;10.95;;;5.70;;
67363;SDS011;54250;45.572;38.086;2022-08-20T01:31:33;9.80;;;5.55;;
67363;SDS011;54250;45.572;38.086;2022-08-20T01:34:01;12.63;;;5.88;;
67363;SDS011;54250;45.572;38.086;2022-08-20T01:37:02;12.80;;;5.88;;
67363;SDS011;54250;45.572;38.086;2022-08-20T01:39:26;8.75;;;5.30;;
67363;SDS011;54250;45.572;38.086;2022-08-20T01:44:44;12.75;;;5.20;;
67363;SDS011;54250;45.572;38.086;2022-08-20T01:47:13;21.40;;;6.03;;
67363;SDS011;54250;45.572;38.086;2022-08-20T01:49:44;9.75;;;5.70;;
67363;SDS011;54250;45.572;38.086;2022-08-20T01:55:05;9.70;;;5.68;;
67363;SDS011;54250;45.572;38.086;2022-08-20T01:57:33;15.35;;;5.85;;
67363;SDS011;54250;45.572;38.086;2022-08-20T02:00:01;11.98;;;5.85;;
67363;SDS011;54250;45.572;38.086;2022-08-20T02:02:33;12.05;;;5.55;;
67363;SDS011;54250;45.572;38.086;2022-08-20T02:04:59;9.25;;;5.70;;
67363;SDS011;54250;45.572;38.086;2022-08-20T02:07:25;8.75;;;5.72;;
67363;SDS011;54250;45.572;38.086;2022-08-20T02:09:51;9.85;;;6.30;;
67363;SDS011;54250;45.572;38.086;2022-08-20T02:12:17;9.32;;;6.40;;
67363;SDS011;54250;45.572;38.086;2022-08-20T02:14:46;13.18;;;6.13;;
67363;SDS011;54250;45.572;38.086;2022-08-20T02:17:15;12.00;;;6.75;;
67363;SDS011;54250;45.572;38.086;2022-08-20T02:19:54;12.02;;;6.30;;
67363;SDS011;54250;45.572;38.086;2022-08-20T02:25:09;16.98;;;6.50;;
67363;SDS011;54250;45.572;38.086;2022-08-20T02:27:37;15.70;;;7.25;;
67363;SDS011;54250;45.572;38.086;2022-08-20T02:30:06;13.82;;;6.78;;
67363;SDS011;54250;45.572;38.086;2022-08-20T02:32:37;11.30;;;6.50;;
67363;SDS011;54250;45.572;38.086;2022-08-20T02:35:04;19.45;;;7.57;;
67363;SDS011;54250;45.572;38.086;2022-08-20T02:37:35;12.77;;;7.07;;
67363;SDS011;54250;45.572;38.086;2022-08-20T02:40:05;13.68;;;7.53;;
67363;SDS011;54250;45.572;38.086;2022-08-20T02:42:34;11.32;;;7.30;;
67363;SDS011;54250;45.572;38.086;2022-08-20T02:45:02;13.25;;;7.65;;
67363;SDS011;54250;45.572;38.086;2022-08-20T02:47:30;18.23;;;7.28;;
67363;SDS011;54250;45.572;38.086;2022-08-20T02:49:57;14.35;;;7.78;;
67363;SDS011;54250;45.572;38.086;2022-08-20T02:52:24;16.58;;;8.48;;
67363;SDS011;54250;45.572;38.086;2022-08-20T02:54:50;17.25;;;7.97;;
67363;SDS011;54250;45.572;38.086;2022-08-20T02:57:17;12.20;;;7.40;;
67363;SDS011;54250;45.572;38.086;2022-08-20T02:59:47;18.38;;;7.68;;
67363;SDS011;54250;45.572;38.086;2022-08-20T03:02:14;12.52;;;7.45;;
67363;SDS011;54250;45.572;38.086;2022-08-20T03:04:41;14.07;;;6.70;;
67363;SDS011;54250;45.572;38.086;2022-08-20T03:07:07;11.23;;;6.80;;
67363;SDS011;54250;45.572;38.086;2022-08-20T03:09:34;9.52;;;6.22;;
67363;SDS011;54250;45.572;38.086;2022-08-20T03:12:01;12.38;;;6.15;;
67363;SDS011;54250;45.572;38.086;2022-08-20T03:14:28;20.65;;;5.90;;
67363;SDS011;54250;45.572;38.086;2022-08-20T03:16:54;12.35;;;6.30;;
67363;SDS011;54250;45.572;38.086;2022-08-20T03:19:21;9.52;;;6.20;;
67363;SDS011;54250;45.572;38.086;2022-08-20T03:21:47;15.65;;;6.10;;
67363;SDS011;54250;45.572;38.086;2022-08-20T03:24:14;9.27;;;5.40;;
67363;SDS011;54250;45.572;38.086;2022-08-20T03:26:40;16.48;;;6.32;;
67363;SDS011;54250;45.572;38.086;2022-08-20T03:29:07;14.52;;;5.63;;
67363;SDS011;54250;45.572;38.086;2022-08-20T03:31:34;11.75;;;6.30;;
67363;SDS011;54250;45.572;38.086;2022-08-20T03:34:00;16.73;;;5.63;;
67363;SDS011;54250;45.572;38.086;2022-08-20T03:36:27;15.00;;;5.65;;
67363;SDS011;54250;45.572;38.086;2022-08-20T03:38:57;10.55;;;5.40;;
67363;SDS011;54250;45.572;38.086;2022-08-20T03:41:25;10.80;;;5.95;;
67363;SDS011;54250;45.572;38.086;2022-08-20T03:43:51;15.98;;;6.15;;
67363;SDS011;54250;45.572;38.086;2022-08-20T03:46:19;9.52;;;5.63;;
67363;SDS011;54250;45.572;38.086;2022-08-20T03:48:45;12.30;;;6.00;;
67363;SDS011;54250;45.572;38.086;2022-08-20T03:51:11;8.32;;;5.20;;
67363;SDS011;54250;45.572;38.086;2022-08-20T03:53:37;10.32;;;5.68;;
67363;SDS011;54250;45.572;38.086;2022-08-20T03:56:04;19.67;;;5.38;;
67363;SDS011;54250;45.572;38.086;2022-08-20T03:58:31;13.25;;;4.90;;
67363;SDS011;54250;45.572;38.086;2022-08-20T04:00:58;7.70;;;5.07;;
67363;SDS011;54250;45.572;38.086;2022-08-20T04:06:10;8.32;;;4.90;;
67363;SDS011;54250;45.572;38.086;2022-08-20T04:08:37;10.10;;;4.97;;
67363;SDS011;54250;45.572;38.086;2022-08-20T04:11:04;8.05;;;4.57;;
67363;SDS011;54250;45.572;38.086;2022-08-20T04:13:31;13.65;;;4.88;;
67363;SDS011;54250;45.572;38.086;2022-08-20T04:16:00;12.43;;;5.43;;
67363;SDS011;54250;45.572;38.086;2022-08-20T04:18:28;8.80;;;4.78;;
67363;SDS011;54250;45.572;38.086;2022-08-20T04:20:54;19.45;;;5.55;;
67363;SDS011;54250;45.572;38.086;2022-08-20T04:23:21;12.45;;;5.72;;
67363;SDS011;54250;45.572;38.086;2022-08-20T04:25:47;10.20;;;5.55;;
67363;SDS011;54250;45.572;38.086;2022-08-20T04:28:16;12.80;;;5.50;;
67363;SDS011;54250;45.572;38.086;2022-08-20T04:30:51;12.02;;;5.35;;
67363;SDS011;54250;45.572;38.086;2022-08-20T04:33:19;8.80;;;5.63;;
67363;SDS011;54250;45.572;38.086;2022-08-20T04:35:46;10.18;;;5.70;;
67363;SDS011;54250;45.572;38.086;2022-08-20T04:38:14;9.15;;;5.95;;
67363;SDS011;54250;45.572;38.086;2022-08-20T04:40:41;13.00;;;5.57;;
67363;SDS011;54250;45.572;38.086;2022-08-20T04:43:27;9.40;;;5.93;;
67363;SDS011;54250;45.572;38.086;2022-08-20T04:45:58;11.23;;;5.85;;
67363;SDS011;54250;45.572;38.086;2022-08-20T04:48:26;8.10;;;5.38;;
67363;SDS011;54250;45.572;38.086;2022-08-20T04:50:54;9.15;;;5.47;;
67363;SDS011;54250;45.572;38.086;2022-08-20T04:53:22;15.48;;;5.72;;
67363;SDS011;54250;45.572;38.086;2022-08-20T04:55:50;14.63;;;5.10;;
67363;SDS011;54250;45.572;38.086;2022-08-20T04:58:19;8.35;;;4.70;;
67363;SDS011;54250;45.572;38.086;2022-08-20T05:01:02;7.80;;;4.60;;
67363;SDS011;54250;45.572;38.086;2022-08-20T05:03:32;8.07;;;4.70;;
67363;SDS011;54250;45.572;38.086;2022-08-20T05:05:58;20.13;;;4.53;;
67363;SDS011;54250;45.572;38.086;2022-08-20T05:08:26;12.82;;;4.65;;
67363;SDS011;54250;45.572;38.086;2022-08-20T05:10:53;11.93;;;4.60;;
67363;SDS011;54250;45.572;38.086;2022-08-20T05:13:20;14.23;;;4.40;;
67363;SDS011;54250;45.572;38.086;2022-08-20T05:15:46;10.05;;;4.18;;
67363;SDS011;54250;45.572;38.086;2022-08-20T05:18:15;13.00;;;4.47;;
67363;SDS011;54250;45.572;38.086;2022-08-20T05:20:44;10.32;;;3.95;;
67363;SDS011;54250;45.572;38.086;2022-08-20T05:23:11;11.07;;;4.43;;
67363;SDS011;54250;45.572;38.086;2022-08-20T05:25:40;15.32;;;4.85;;
67363;SDS011;54250;45.572;38.086;2022-08-20T05:28:08;9.98;;;4.10;;
67363;SDS011;54250;45.572;38.086;2022-08-20T05:30:38;15.98;;;4.13;;
67363;SDS011;54250;45.572;38.086;2022-08-20T05:33:06;10.48;;;3.90;;
67363;SDS011;54250;45.572;38.086;2022-08-20T05:35:34;12.75;;;3.65;;
67363;SDS011;54250;45.572;38.086;2022-08-20T05:38:06;13.05;;;4.20;;
67363;SDS011;54250;45.572;38.086;2022-08-20T05:40:36;11.73;;;4.10;;
67363;SDS011;54250;45.572;38.086;2022-08-20T05:43:03;17.15;;;4.20;;
67363;SDS011;54250;45.572;38.086;2022-08-20T05:45:30;20.05;;;3.88;;
67363;SDS011;54250;45.572;38.086;2022-08-20T05:47:56;13.73;;;4.10;;
67363;SDS011;54250;45.572;38.086;2022-08-20T05:50:22;22.90;;;4.35;;
67363;SDS011;54250;45.572;38.086;2022-08-20T05:52:49;15.10;;;3.72;;
67363;SDS011;54250;45.572;38.086;2022-08-20T05:55:15;8.93;;;3.67;;
67363;SDS011;54250;45.572;38.086;2022-08-20T05:57:41;9.50;;;3.75;;
67363;SDS011;54250;45.572;38.086;2022-08-20T06:00:09;27.05;;;4.38;;
67363;SDS011;54250;45.572;38.086;2022-08-20T06:02:37;13.27;;;4.15;;
67363;SDS011;54250;45.572;38.086;2022-08-20T06:05:22;16.30;;;4.13;;
67363;SDS011;54250;45.572;38.086;2022-08-20T06:07:48;11.40;;;4.53;;
67363;SDS011;54250;45.572;38.086;2022-08-20T06:10:17;8.63;;;3.88;;
67363;SDS011;54250;45.572;38.086;2022-08-20T06:12:44;11.52;;;4.28;;
67363;SDS011;54250;45.572;38.086;2022-08-20T06:15:10;13.45;;;4.05;;
67363;SDS011;54250;45.572;38.086;2022-08-20T06:17:37;15.77;;;3.70;;
67363;SDS011;54250;45.572;38.086;2022-08-20T06:20:05;13.15;;;3.83;;
67363;SDS011;54250;45.572;38.086;2022-08-20T06:22:33;15.77;;;3.63;;
67363;SDS011;54250;45.572;38.086;2022-08-20T06:25:00;11.85;;;3.53;;
67363;SDS011;54250;45.572;38.086;2022-08-20T06:27:27;22.90;;;4.10;;
67363;SDS011;54250;45.572;38.086;2022-08-20T06:29:53;9.25;;;3.47;;
67363;SDS011;54250;45.572;38.086;2022-08-20T06:32:20;15.73;;;3.50;;
67363;SDS011;54250;45.572;38.086;2022-08-20T06:34:49;11.00;;;3.42;;
67363;SDS011;54250;45.572;38.086;2022-08-20T06:37:23;13.80;;;3.40;;
67363;SDS011;54250;45.572;38.086;2022-08-20T06:39:50;16.85;;;4.20;;
67363;SDS011;54250;45.572;38.086;2022-08-20T06:42:17;13.05;;;4.13;;
67363;SDS011;54250;45.572;38.086;2022-08-20T06:44:45;12.95;;;2.90;;
67363;SDS011;54250;45.572;38.086;2022-08-20T06:47:13;15.90;;;4.00;;
67363;SDS011;54250;45.572;38.086;2022-08-20T06:49:41;10.60;;;3.20;;
67363;SDS011;54250;45.572;38.086;2022-08-20T06:52:07;5.22;;;2.75;;
67363;SDS011;54250;45.572;38.086;2022-08-20T06:54:34;15.70;;;3.38;;
67363;SDS011;54250;45.572;38.086;2022-08-20T06:57:01;17.77;;;3.42;;
67363;SDS011;54250;45.572;38.086;2022-08-20T06:59:28;11.10;;;3.95;;
67363;SDS011;54250;45.572;38.086;2022-08-20T07:01:54;9.63;;;2.95;;
67363;SDS011;54250;45.572;38.086;2022-08-20T07:04:21;13.27;;;4.25;;
67363;SDS011;54250;45.572;38.086;2022-08-20T07:06:48;17.05;;;4.38;;
67363;SDS011;54250;45.572;38.086;2022-08-20T07:09:18;7.70;;;2.90;;
67363;SDS011;54250;45.572;38.086;2022-08-20T07:11:45;9.10;;;3.08;;
67363;SDS011;54250;45.572;38.086;2022-08-20T07:14:12;16.02;;;3.40;;
67363;SDS011;54250;45.572;38.086;2022-08-20T07:16:39;11.70;;;3.55;;
67363;SDS011;54250;45.572;38.086;2022-08-20T07:19:05;14.40;;;3.88;;
67363;SDS011;54250;45.572;38.086;2022-08-20T07:21:33;19.00;;;4.93;;
67363;SDS011;54250;45.572;38.086;2022-08-20T07:23:59;13.07;;;4.40;;
67363;SDS011;54250;45.572;38.086;2022-08-20T07:26:25;12.32;;;3.90;;
67363;SDS011;54250;45.572;38.086;2022-08-20T07:28:52;16.92;;;4.63;;
67363;SDS011;54250;45.572;38.086;2022-08-20T07:31:19;19.40;;;4.88;;
67363;SDS011;54250;45.572;38.086;2022-08-20T07:34:03;11.02;;;3.75;;
67363;SDS011;54250;45.572;38.086;2022-08-20T07:36:30;15.23;;;3.88;;
67363;SDS011;54250;45.572;38.086;2022-08-20T07:38:57;12.85;;;3.80;;
67363;SDS011;54250;45.572;38.086;2022-08-20T07:41:23;9.98;;;3.25;;
67363;SDS011;54250;45.572;38.086;2022-08-20T07:43:49;24.40;;;5.28;;
67363;SDS011;54250;45.572;38.086;2022-08-20T07:46:16;15.02;;;3.45;;
67363;SDS011;54250;45.572;38.086;2022-08-20T07:48:46;13.35;;;3.72;;
67363;SDS011;54250;45.572;38.086;2022-08-20T07:51:15;11.90;;;3.25;;
67363;SDS011;54250;45.572;38.086;2022-08-20T07:53:47;17.10;;;3.90;;
67363;SDS011;54250;45.572;38.086;2022-08-20T07:56:15;12.50;;;4.07;;
67363;SDS011;54250;45.572;38.086;2022-08-20T07:58:46;16.17;;;3.60;;
67363;SDS011;54250;45.572;38.086;2022-08-20T08:01:15;15.88;;;3.92;;
67363;SDS011;54250;45.572;38.086;2022-08-20T08:03:45;16.13;;;3.53;;
67363;SDS011;54250;45.572;38.086;2022-08-20T08:06:12;13.25;;;3.30;;
67363;SDS011;54250;45.572;38.086;2022-08-20T08:08:39;13.63;;;3.40;;
67363;SDS011;54250;45.572;38.086;2022-08-20T08:11:06;10.68;;;3.42;;
67363;SDS011;54250;45.572;38.086;2022-08-20T08:13:34;12.88;;;3.70;;
67363;SDS011;54250;45.572;38.086;2022-08-20T08:16:04;14.80;;;3.40;;
67363;SDS011;54250;45.572;38.086;2022-08-20T08:18:41;10.75;;;3.35;;
67363;SDS011;54250;45.572;38.086;2022-08-20T08:21:10;16.55;;;3.50;;
67363;SDS011;54250;45.572;38.086;2022-08-20T08:23:37;8.60;;;3.50;;
67363;SDS011;54250;45.572;38.086;2022-08-20T08:26:11;12.10;;;3.20;;
67363;SDS011;54250;45.572;38.086;2022-08-20T08:28:39;8.00;;;3.03;;
67363;SDS011;54250;45.572;38.086;2022-08-20T08:31:08;17.50;;;3.00;;
67363;SDS011;54250;45.572;38.086;2022-08-20T08:33:35;7.22;;;2.63;;
67363;SDS011;54250;45.572;38.086;2022-08-20T08:36:05;10.57;;;3.10;;
67363;SDS011;54250;45.572;38.086;2022-08-20T08:38:34;12.95;;;2.92;;
67363;SDS011;54250;45.572;38.086;2022-08-20T08:41:05;10.52;;;2.97;;
67363;SDS011;54250;45.572;38.086;2022-08-20T08:43:40;11.50;;;3.45;;
67363;SDS011;54250;45.572;38.086;2022-08-20T08:46:11;16.90;;;2.80;;
67363;SDS011;54250;45.572;38.086;2022-08-20T08:48:43;12.95;;;3.20;;
67363;SDS011;54250;45.572;38.086;2022-08-20T08:51:14;5.75;;;2.70;;
67363;SDS011;54250;45.572;38.086;2022-08-20T08:53:48;10.80;;;2.80;;
67363;SDS011;54250;45.572;38.086;2022-08-20T08:56:19;10.50;;;2.40;;
67363;SDS011;54250;45.572;38.086;2022-08-20T08:58:49;9.75;;;2.80;;
67363;SDS011;54250;45.572;38.086;2022-08-20T09:01:16;4.00;;;1.80;;
67363;SDS011;54250;45.572;38.086;2022-08-20T09:03:47;10.30;;;2.13;;
67363;SDS011;54250;45.572;38.086;2022-08-20T09:06:17;7.70;;;2.75;;
67363;SDS011;54250;45.572;38.086;2022-08-20T09:08:48;7.35;;;2.28;;
67363;SDS011;54250;45.572;38.086;2022-08-20T09:11:21;8.95;;;2.88;;
67363;SDS011;54250;45.572;38.086;2022-08-20T09:13:49;9.45;;;2.33;;
67363;SDS011;54250;45.572;38.086;2022-08-20T09:16:18;7.18;;;2.70;;
67363;SDS011;54250;45.572;38.086;2022-08-20T09:18:47;11.20;;;3.05;;
67363;SDS011;54250;45.572;38.086;2022-08-20T09:21:14;13.70;;;3.33;;
67363;SDS011;54250;45.572;38.086;2022-08-20T09:23:41;12.70;;;4.00;;
67363;SDS011;54250;45.572;38.086;2022-08-20T09:26:08;10.35;;;3.45;;
67363;SDS011;54250;45.572;38.086;2022-08-20T09:28:35;10.85;;;2.80;;
67363;SDS011;54250;45.572;38.086;2022-08-20T09:31:01;15.25;;;3.10;;
67363;SDS011;54250;45.572;38.086;2022-08-20T09:33:28;12.43;;;3.17;;
67363;SDS011;54250;45.572;38.086;2022-08-20T09:35:54;13.00;;;3.00;;
67363;SDS011;54250;45.572;38.086;2022-08-20T09:38:20;16.10;;;3.75;;
67363;SDS011;54250;45.572;38.086;2022-08-20T09:40:47;12.70;;;2.70;;
67363;SDS011;54250;45.572;38.086;2022-08-20T09:43:13;10.27;;;2.55;;
67363;SDS011;54250;45.572;38.086;2022-08-20T09:45:39;12.80;;;3.35;;
67363;SDS011;54250;45.572;38.086;2022-08-20T09:48:06;10.30;;;2.45;;
67363;SDS011;54250;45.572;38.086;2022-08-20T09:50:33;8.25;;;2.60;;
67363;SDS011;54250;45.572;38.086;2022-08-20T09:53:00;9.95;;;3.00;;
67363;SDS011;54250;45.572;38.086;2022-08-20T09:55:31;10.73;;;2.47;;
67363;SDS011;54250;45.572;38.086;2022-08-20T09:58:01;7.25;;;2.50;;
67363;SDS011;54250;45.572;38.086;2022-08-20T10:00:33;10.98;;;3.17;;
67363;SDS011;54250;45.572;38.086;2022-08-20T10:03:00;9.32;;;2.28;;
67363;SDS011;54250;45.572;38.086;2022-08-20T10:05:27;7.60;;;2.00;;
67363;SDS011;54250;45.572;38.086;2022-08-20T10:07:54;13.00;;;2.28;;
67363;SDS011;54250;45.572;38.086;2022-08-20T10:10:20;12.32;;;2.42;;
67363;SDS011;54250;45.572;38.086;2022-08-20T10:12:46;7.00;;;1.90;;
67363;SDS011;54250;45.572;38.086;2022-08-20T10:15:13;3.80;;;2.20;;
67363;SDS011;54250;45.572;38.086;2022-08-20T10:17:40;8.05;;;1.60;;
67363;SDS011;54250;45.572;38.086;2022-08-20T10:20:07;6.03;;;2.10;;
67363;SDS011;54250;45.572;38.086;2022-08-20T10:22:36;11.02;;;2.10;;
67363;SDS011;54250;45.572;38.086;2022-08-20T10:25:03;5.07;;;1.90;;
67363;SDS011;54250;45.572;38.086;2022-08-20T10:27:30;7.68;;;2.03;;
67363;SDS011;54250;45.572;38.086;2022-08-20T10:29:56;8.82;;;2.35;;
67363;SDS011;54250;45.572;38.086;2022-08-20T10:32:22;8.50;;;1.98;;
67363;SDS011;54250;45.572;38.086;2022-08-20T10:34:48;7.40;;;1.83;;
67363;SDS011;54250;45.572;38.086;2022-08-20T10:37:15;16.48;;;1.75;;
67363;SDS011;54250;45.572;38.086;2022-08-20T10:39:43;9.35;;;2.30;;
67363;SDS011;54250;45.572;38.086;2022-08-20T10:42:10;15.18;;;2.50;;
67363;SDS011;54250;45.572;38.086;2022-08-20T10:44:36;9.07;;;2.25;;
67363;SDS011;54250;45.572;38.086;2022-08-20T10:49:48;14.38;;;2.22;;
67363;SDS011;54250;45.572;38.086;2022-08-20T10:52:15;17.85;;;3.38;;
67363;SDS011;54250;45.572;38.086;2022-08-20T10:54:42;12.48;;;2.55;;
67363;SDS011;54250;45.572;38.086;2022-08-20T10:57:11;10.98;;;2.30;;
67363;SDS011;54250;45.572;38.086;2022-08-20T10:59:40;13.98;;;3.42;;
67363;SDS011;54250;45.572;38.086;2022-08-20T11:02:08;10.80;;;2.25;;
67363;SDS011;54250;45.572;38.086;2022-08-20T11:04:34;15.30;;;2.70;;
67363;SDS011;54250;45.572;38.086;2022-08-20T11:09:41;8.75;;;2.08;;
67363;SDS011;54250;45.572;38.086;2022-08-20T11:12:08;10.10;;;2.35;;
67363;SDS011;54250;45.572;38.086;2022-08-20T11:14:34;13.10;;;2.10;;
67363;SDS011;54250;45.572;38.086;2022-08-20T11:17:00;15.88;;;2.63;;
67363;SDS011;54250;45.572;38.086;2022-08-20T11:19:27;7.20;;;1.92;;
67363;SDS011;54250;45.572;38.086;2022-08-20T11:21:53;9.25;;;2.28;;
67363;SDS011;54250;45.572;38.086;2022-08-20T11:24:20;6.72;;;2.20;;
67363;SDS011;54250;45.572;38.086;2022-08-20T11:26:46;7.07;;;2.00;;
67363;SDS011;54250;45.572;38.086;2022-08-20T11:29:14;16.98;;;2.53;;
67363;SDS011;54250;45.572;38.086;2022-08-20T11:31:41;8.88;;;2.47;;
67363;SDS011;54250;45.572;38.086;2022-08-20T11:34:08;6.93;;;1.80;;
67363;SDS011;54250;45.572;38.086;2022-08-20T11:36:34;5.93;;;1.70;;
67363;SDS011;54250;45.572;38.086;2022-08-20T11:39:01;9.27;;;2.03;;
67363;SDS011;54250;45.572;38.086;2022-08-20T11:41:28;10.48;;;2.60;;
67363;SDS011;54250;45.572;38.086;2022-08-20T11:43:54;10.82;;;2.35;;
67363;SDS011;54250;45.572;38.086;2022-08-20T11:46:20;7.82;;;2.58;;
67363;SDS011;54250;45.572;38.086;2022-08-20T11:48:46;12.88;;;2.42;;
67363;SDS011;54250;45.572;38.086;2022-08-20T11:51:12;14.10;;;2.30;;
67363;SDS011;54250;45.572;38.086;2022-08-20T11:53:38;7.20;;;2.28;;
67363;SDS011;54250;45.572;38.086;2022-08-20T11:56:04;10.30;;;2.25;;
67363;SDS011;54250;45.572;38.086;2022-08-20T11:58:33;10.40;;;2.42;;
67363;SDS011;54250;45.572;38.086;2022-08-20T12:01:00;13.38;;;2.80;;
67363;SDS011;54250;45.572;38.086;2022-08-20T12:03:26;15.07;;;2.67;;
67363;SDS011;54250;45.572;38.086;2022-08-20T12:05:52;14.25;;;2.53;;
67363;SDS011;54250;45.572;38.086;2022-08-20T12:08:21;16.42;;;2.13;;
67363;SDS011;54250;45.572;38.086;2022-08-20T12:10:47;12.48;;;2.08;;
67363;SDS011;54250;45.572;38.086;2022-08-20T12:13:13;4.93;;;2.03;;
67363;SDS011;54250;45.572;38.086;2022-08-20T12:15:39;8.63;;;2.03;;
67363;SDS011;54250;45.572;38.086;2022-08-20T12:18:06;6.70;;;2.08;;
67363;SDS011;54250;45.572;38.086;2022-08-20T12:20:33;13.82;;;3.05;;
67363;SDS011;54250;45.572;38.086;2022-08-20T12:22:59;9.70;;;2.67;;
67363;SDS011;54250;45.572;38.086;2022-08-20T12:25:25;20.20;;;2.50;;
67363;SDS011;54250;45.572;38.086;2022-08-20T12:27:51;11.15;;;2.20;;
67363;SDS011;54250;45.572;38.086;2022-08-20T12:30:20;13.98;;;3.08;;
67363;SDS011;54250;45.572;38.086;2022-08-20T12:32:48;7.43;;;2.00;;
67363;SDS011;54250;45.572;38.086;2022-08-20T12:35:17;17.13;;;2.47;;
67363;SDS011;54250;45.572;38.086;2022-08-20T12:37:44;10.52;;;2.05;;
67363;SDS011;54250;45.572;38.086;2022-08-20T12:40:12;6.80;;;1.75;;
67363;SDS011;54250;45.572;38.086;2022-08-20T12:42:42;5.43;;;1.55;;
67363;SDS011;54250;45.572;38.086;2022-08-20T12:45:10;10.35;;;2.28;;
67363;SDS011;54250;45.572;38.086;2022-08-20T12:47:39;10.75;;;1.85;;
67363;SDS011;54250;45.572;38.086;2022-08-20T12:50:11;7.63;;;2.00;;
67363;SDS011;54250;45.572;38.086;2022-08-20T12:52:40;8.45;;;1.58;;
67363;SDS011;54250;45.572;38.086;2022-08-20T12:55:10;5.95;;;1.65;;
67363;SDS011;54250;45.572;38.086;2022-08-20T12:57:41;10.35;;;2.55;;
67363;SDS011;54250;45.572;38.086;2022-08-20T13:00:20;4.78;;;1.52;;
67363;SDS011;54250;45.572;38.086;2022-08-20T13:02:55;9.20;;;1.95;;
67363;SDS011;54250;45.572;38.086;2022-08-20T13:05:22;12.88;;;1.65;;
67363;SDS011;54250;45.572;38.086;2022-08-20T13:07:50;6.68;;;1.80;;
67363;SDS011;54250;45.572;38.086;2022-08-20T13:10:24;14.75;;;2.33;;
67363;SDS011;54250;45.572;38.086;2022-08-20T13:12:53;11.48;;;1.80;;
67363;SDS011;54250;45.572;38.086;2022-08-20T13:15:19;6.88;;;2.20;;
67363;SDS011;54250;45.572;38.086;2022-08-20T13:17:52;4.03;;;1.42;;
67363;SDS011;54250;45.572;38.086;2022-08-20T13:20:20;11.75;;;1.77;;
67363;SDS011;54250;45.572;38.086;2022-08-20T13:22:50;13.13;;;2.53;;
67363;SDS011;54250;45.572;38.086;2022-08-20T13:25:17;11.00;;;1.80;;
67363;SDS011;54250;45.572;38.086;2022-08-20T13:27:43;11.40;;;1.83;;
67363;SDS011;54250;45.572;38.086;2022-08-20T13:30:11;14.25;;;2.50;;
67363;SDS011;54250;45.572;38.086;2022-08-20T13:32:40;13.00;;;2.75;;
67363;SDS011;54250;45.572;38.086;2022-08-20T13:35:07;13.57;;;2.60;;
67363;SDS011;54250;45.572;38.086;2022-08-20T13:37:36;11.48;;;2.03;;
67363;SDS011;54250;45.572;38.086;2022-08-20T13:40:04;16.77;;;2.53;;
67363;SDS011;54250;45.572;38.086;2022-08-20T13:42:32;16.17;;;2.83;;
67363;SDS011;54250;45.572;38.086;2022-08-20T13:44:59;18.50;;;2.95;;
67363;SDS011;54250;45.572;38.086;2022-08-20T13:47:27;8.63;;;2.15;;
67363;SDS011;54250;45.572;38.086;2022-08-20T13:49:58;11.65;;;2.53;;
67363;SDS011;54250;45.572;38.086;2022-08-20T13:52:45;17.25;;;3.08;;
67363;SDS011;54250;45.572;38.086;2022-08-20T13:55:12;13.30;;;3.08;;
67363;SDS011;54250;45.572;38.086;2022-08-20T13:57:40;11.77;;;2.63;;
67363;SDS011;54250;45.572;38.086;2022-08-20T14:00:08;23.85;;;3.38;;
67363;SDS011;54250;45.572;38.086;2022-08-20T14:02:38;13.80;;;2.50;;
67363;SDS011;54250;45.572;38.086;2022-08-20T14:05:05;16.80;;;3.40;;
67363;SDS011;54250;45.572;38.086;2022-08-20T14:07:32;26.02;;;4.97;;
67363;SDS011;54250;45.572;38.086;2022-08-20T14:10:00;24.55;;;4.60;;
67363;SDS011;54250;45.572;38.086;2022-08-20T14:12:38;21.75;;;3.90;;
67363;SDS011;54250;45.572;38.086;2022-08-20T14:15:04;12.77;;;2.38;;
67363;SDS011;54250;45.572;38.086;2022-08-20T14:17:32;17.98;;;3.53;;
67363;SDS011;54250;45.572;38.086;2022-08-20T14:20:02;21.05;;;3.53;;
67363;SDS011;54250;45.572;38.086;2022-08-20T14:22:31;29.30;;;4.03;;
67363;SDS011;54250;45.572;38.086;2022-08-20T14:24:57;20.30;;;2.70;;
67363;SDS011;54250;45.572;38.086;2022-08-20T14:27:29;16.50;;;2.70;;
67363;SDS011;54250;45.572;38.086;2022-08-20T14:29:57;6.05;;;2.08;;
67363;SDS011;54250;45.572;38.086;2022-08-20T14:32:23;9.50;;;2.65;;
67363;SDS011;54250;45.572;38.086;2022-08-20T14:34:49;24.88;;;3.78;;
67363;SDS011;54250;45.572;38.086;2022-08-20T14:39:49;18.48;;;2.85;;
67363;SDS011;54250;45.572;38.086;2022-08-20T14:42:17;10.05;;;2.80;;
67363;SDS011;54250;45.572;38.086;2022-08-20T14:44:47;22.20;;;3.40;;
67363;SDS011;54250;45.572;38.086;2022-08-20T14:50:04;19.42;;;2.83;;
67363;SDS011;54250;45.572;38.086;2022-08-20T14:52:33;12.88;;;2.90;;
67363;SDS011;54250;45.572;38.086;2022-08-20T14:55:01;20.42;;;3.65;;
67363;SDS011;54250;45.572;38.086;2022-08-20T14:57:29;12.63;;;3.03;;
67363;SDS011;54250;45.572;38.086;2022-08-20T14:59:56;10.77;;;2.70;;
67363;SDS011;54250;45.572;38.086;2022-08-20T15:02:22;24.60;;;2.78;;
67363;SDS011;54250;45.572;38.086;2022-08-20T15:04:48;13.65;;;2.15;;